Time;durP1;ratioP1;P1;durP2;ratioP2;P2;SDS_P1;SDS_P2;PMS_P1;PMS_P2;Temp;Humidity;BMP_temperature;BMP_pressure;BME280_temperature;BME280_humidity;BME280_pressure;Samples;Min_cycle;Max_cycle;Signal;HPM_P1;HPM_P2
2021/01/06 00:00:59;;;;;;;15.00;10.57;;;;;;;1.46;78.84;98360.45;2161410;81;21543;-76
2021/01/06 00:04:00;;;;;;;19.67;11.00;;;;;;;1.46;78.60;98367.77;2161364;82;21280;-76
2021/01/06 00:07:01;;;;;;;16.57;9.97;;;;;;;1.48;78.86;98378.11;2161222;82;21253;-76
2021/01/06 00:10:02;;;;;;;14.13;9.77;;;;;;;1.53;78.90;98383.03;2161234;82;21253;-75
2021/01/06 00:13:03;;;;;;;16.67;9.23;;;;;;;1.48;78.34;98381.97;2161152;82;21297;-76
2021/01/06 00:16:04;;;;;;;16.23;9.93;;;;;;;1.42;78.37;98380.44;2160870;82;21269;-76
2021/01/06 00:19:05;;;;;;;17.50;10.13;;;;;;;1.42;78.68;98390.73;2160924;82;21245;-75
2021/01/06 00:22:07;;;;;;;16.67;9.73;;;;;;;1.38;78.35;98387.56;2161527;82;21285;-76
2021/01/06 00:25:08;;;;;;;14.53;9.23;;;;;;;1.38;78.77;98390.13;2161403;82;21159;-76
2021/01/06 00:28:09;;;;;;;16.90;10.50;;;;;;;1.43;78.77;98389.91;2161558;82;21444;-76
2021/01/06 00:31:13;;;;;;;38.40;18.70;;;;;;;1.47;78.83;98391.38;2161806;82;21424;-76
2021/01/06 00:34:14;;;;;;;18.27;11.27;;;;;;;1.56;78.68;98389.17;2161361;82;21408;-76
2021/01/06 00:37:18;;;;;;;15.17;9.70;;;;;;;1.62;78.70;98396.25;2161807;82;21527;-75
2021/01/06 00:40:19;;;;;;;15.57;9.47;;;;;;;1.66;78.53;98395.55;2162194;82;21146;-75
2021/01/06 00:43:20;;;;;;;14.53;9.93;;;;;;;1.65;78.46;98396.38;2161813;82;21887;-76
2021/01/06 00:46:21;;;;;;;21.33;13.00;;;;;;;1.68;78.45;98407.20;2161472;82;21257;-76
2021/01/06 00:49:22;;;;;;;15.93;11.57;;;;;;;1.69;78.69;98403.40;2161090;82;21234;-77
2021/01/06 00:52:23;;;;;;;15.47;10.63;;;;;;;1.73;78.69;98403.11;2166808;81;21466;-76
2021/01/06 00:55:24;;;;;;;17.60;11.67;;;;;;;1.74;78.43;98405.78;2178302;81;21263;-77
2021/01/06 00:58:25;;;;;;;15.67;10.47;;;;;;;1.70;78.29;98402.98;2179059;81;21265;-76
2021/01/06 01:01:27;;;;;;;21.40;12.90;;;;;;;1.72;78.22;98404.80;2178986;81;21252;-76
2021/01/06 01:04:28;;;;;;;17.97;11.80;;;;;;;1.71;78.39;98412.05;2177558;82;21137;-76
2021/01/06 01:07:29;;;;;;;16.67;11.53;;;;;;;1.77;78.40;98413.61;2178040;81;21244;-76
2021/01/06 01:10:31;;;;;;;17.33;11.40;;;;;;;1.77;78.31;98412.73;2177232;81;21280;-76
2021/01/06 01:13:32;;;;;;;21.87;13.63;;;;;;;1.79;78.29;98416.25;2176871;82;21237;-76
2021/01/06 01:16:33;;;;;;;19.23;11.43;;;;;;;1.81;78.29;98415.48;2178215;81;21276;-77
2021/01/06 01:19:34;;;;;;;16.47;12.40;;;;;;;1.83;78.05;98411.69;2178551;81;21503;-76
2021/01/06 01:22:35;;;;;;;20.77;13.80;;;;;;;1.79;78.07;98409.41;2177675;81;21530;-76
2021/01/06 01:25:36;;;;;;;22.00;13.37;;;;;;;1.82;78.17;98404.79;2178484;82;21137;-77
2021/01/06 01:28:37;;;;;;;55.33;28.03;;;;;;;1.83;78.23;98411.28;2178873;81;21249;-77
2021/01/06 01:31:39;;;;;;;19.83;13.33;;;;;;;1.88;78.24;98412.34;2178804;81;21292;-77
2021/01/06 01:34:40;;;;;;;21.60;14.17;;;;;;;1.84;78.14;98410.46;2177775;82;21546;-76
2021/01/06 01:37:41;;;;;;;16.03;12.33;;;;;;;1.85;78.39;98407.07;2178418;81;21232;-76
2021/01/06 01:40:42;;;;;;;21.60;13.20;;;;;;;1.89;78.28;98411.93;2179208;81;21268;-76
2021/01/06 01:43:43;;;;;;;23.20;14.20;;;;;;;1.86;78.35;98417.84;2179081;82;21257;-77
2021/01/06 01:46:51;;;;;;;17.03;11.77;;;;;;;1.88;78.42;98420.47;2178843;81;21375;-76
2021/01/06 01:49:52;;;;;;;20.93;14.07;;;;;;;1.87;78.40;98409.70;2179026;82;21114;-77
2021/01/06 01:52:53;;;;;;;19.77;13.70;;;;;;;1.85;78.40;98412.62;2171046;81;21174;-77
2021/01/06 01:55:54;;;;;;;22.27;13.40;;;;;;;1.85;78.47;98412.22;2161711;82;21397;-75
2021/01/06 01:58:55;;;;;;;22.77;15.07;;;;;;;1.86;78.48;98420.81;2161552;82;21229;-76
2021/01/06 02:01:56;;;;;;;18.53;13.43;;;;;;;1.90;78.54;98422.69;2161264;82;21276;-76
2021/01/06 02:04:57;;;;;;;22.37;14.27;;;;;;;1.95;78.44;98421.58;2161854;82;21273;-76
2021/01/06 02:07:59;;;;;;;19.97;13.73;;;;;;;1.95;78.34;98415.14;2161476;82;21252;-76
2021/01/06 02:11:00;;;;;;;25.77;15.30;;;;;;;1.94;78.17;98418.54;2161148;82;21296;-76
2021/01/06 02:14:01;;;;;;;21.87;14.30;;;;;;;1.90;78.23;98414.97;2161340;82;21282;-76
2021/01/06 02:17:04;;;;;;;22.10;13.53;;;;;;;1.89;78.25;98411.93;2161385;82;21543;-76
2021/01/06 02:20:05;;;;;;;20.13;13.57;;;;;;;1.89;78.28;98408.95;2161129;82;21265;-75
2021/01/06 02:23:06;;;;;;;24.00;14.67;;;;;;;1.86;78.18;98411.81;2161387;82;21285;-76
2021/01/06 02:26:07;;;;;;;20.97;14.03;;;;;;;1.85;78.31;98412.62;2161655;82;21511;-76
2021/01/06 02:29:08;;;;;;;25.27;15.70;;;;;;;1.85;78.27;98407.07;2161112;82;21289;-75
2021/01/06 02:32:09;;;;;;;21.47;14.20;;;;;;;1.89;78.24;98410.64;2161041;82;21300;-76
2021/01/06 02:35:10;;;;;;;24.53;15.57;;;;;;;1.90;78.16;98413.27;2161718;82;21269;-76
2021/01/06 02:38:12;;;;;;;24.63;15.30;;;;;;;1.92;78.20;98410.76;2161796;82;21349;-76
2021/01/06 02:41:13;;;;;;;21.03;14.27;;;;;;;1.94;78.19;98412.98;2161260;82;21253;-76
2021/01/06 02:44:14;;;;;;;23.03;14.37;;;;;;;1.94;78.15;98411.70;2161142;82;21265;-76
2021/01/06 02:47:15;;;;;;;24.37;14.87;;;;;;;1.93;78.07;98406.08;2161491;82;21265;-76
2021/01/06 02:50:16;;;;;;;27.30;16.90;;;;;;;1.92;78.12;98401.75;2161545;82;21536;-76
2021/01/06 02:53:17;;;;;;;19.47;14.70;;;;;;;1.97;78.13;98405.79;2161480;82;21297;-76
2021/01/06 02:56:18;;;;;;;22.83;14.90;;;;;;;1.96;77.99;98398.88;2162002;82;21170;-76
2021/01/06 02:59:19;;;;;;;20.77;14.73;;;;;;;1.95;78.01;98400.58;2161420;82;21246;-76
2021/01/06 03:02:23;;;;;;;22.43;15.17;;;;;;;1.97;77.92;98401.92;2160830;82;21265;-76
2021/01/06 03:05:24;;;;;;;25.60;15.17;;;;;;;1.95;78.03;98403.56;2160898;82;21253;-76
2021/01/06 03:08:25;;;;;;;22.43;13.90;;;;;;;1.95;77.97;98402.28;2161043;82;21134;-76
2021/01/06 03:11:26;;;;;;;20.67;15.20;;;;;;;1.95;78.00;98407.02;2161423;82;21278;-76
2021/01/06 03:14:27;;;;;;;20.53;14.80;;;;;;;1.97;78.08;98405.79;2161808;82;21241;-76
2021/01/06 03:17:29;;;;;;;23.67;15.80;;;;;;;2.00;78.20;98405.91;2161074;82;21845;-76
2021/01/06 03:20:30;;;;;;;22.60;15.77;;;;;;;2.04;78.08;98407.78;2161413;82;21621;-77
2021/01/06 03:23:31;;;;;;;26.43;17.07;;;;;;;2.05;78.00;98406.55;2161826;82;21249;-78
2021/01/06 03:26:32;;;;;;;25.97;15.97;;;;;;;2.05;77.91;98408.24;2161571;82;21511;-76
2021/01/06 03:29:33;;;;;;;25.00;15.83;;;;;;;2.06;77.92;98407.42;2161202;82;21265;-75
2021/01/06 03:32:35;;;;;;;26.87;17.97;;;;;;;2.04;77.78;98412.92;2161486;82;21301;-77
2021/01/06 03:35:36;;;;;;;24.57;16.63;;;;;;;2.05;77.97;98419.83;2161563;82;21266;-76
2021/01/06 03:38:37;;;;;;;24.77;16.73;;;;;;;2.06;77.97;98421.58;2161882;82;21244;-76
2021/01/06 03:41:38;;;;;;;51.53;30.93;;;;;;;2.06;77.84;98418.60;2161019;82;21531;-76
2021/01/06 03:44:39;;;;;;;98.27;65.33;;;;;;;2.11;77.99;98420.06;2161676;82;21142;-75
2021/01/06 03:47:40;;;;;;;32.93;20.67;;;;;;;2.15;77.90;98420.23;2161417;82;21538;-76
2021/01/06 03:50:41;;;;;;;27.03;17.80;;;;;;;2.17;77.75;98421.17;2161347;82;21269;-76
2021/01/06 03:53:43;;;;;;;28.33;17.23;;;;;;;2.13;77.58;98418.42;2161494;82;21296;-76
2021/01/06 03:56:44;;;;;;;32.30;18.67;;;;;;;2.12;77.62;98418.83;2161084;82;21257;-77
2021/01/06 03:59:45;;;;;;;30.03;19.07;;;;;;;2.14;77.63;98424.04;2160360;82;21261;-76
2021/01/06 04:02:49;;;;;;;32.00;19.27;;;;;;;2.17;77.59;98425.03;2160340;82;21381;-76
2021/01/06 04:05:50;;;;;;;34.07;20.67;;;;;;;2.19;77.61;98434.11;2160363;82;21279;-77
2021/01/06 04:08:52;;;;;;;36.37;21.50;;;;;;;2.15;77.34;98422.81;2160353;82;21241;-78
2021/01/06 04:11:53;;;;;;;33.23;20.97;;;;;;;2.12;77.51;98420.53;2160515;82;21165;-76
2021/01/06 04:14:54;;;;;;;33.77;21.17;;;;;;;2.12;77.60;98428.25;2160895;82;21151;-76
2021/01/06 04:17:55;;;;;;;35.63;22.20;;;;;;;2.14;77.61;98433.05;2161404;82;21511;-77
2021/01/06 04:21:02;;;;;;;41.87;23.93;;;;;;;2.14;77.56;98436.91;2161415;82;21285;-77
2021/01/06 04:23:59;;;;;;;48.80;24.43;;;;;;;2.12;77.54;98438.14;2160876;82;21304;-77
2021/01/06 04:27:00;;;;;;;43.77;24.43;;;;;;;2.10;77.49;98433.34;2160852;82;21248;-77
2021/01/06 04:30:02;;;;;;;37.87;23.83;;;;;;;2.10;77.53;98435.92;2161819;82;21091;-77
2021/01/06 04:33:03;;;;;;;45.87;24.53;;;;;;;2.11;77.47;98435.51;2160694;82;21305;-78
2021/01/06 04:36:04;;;;;;;54.43;30.00;;;;;;;2.07;77.50;98433.23;2160860;82;21520;-78
2021/01/06 04:39:05;;;;;;;49.43;27.17;;;;;;;2.05;77.58;98433.58;2160288;82;21480;-77
2021/01/06 04:42:06;;;;;;;43.83;25.03;;;;;;;2.02;77.62;98426.15;2160664;82;21265;-77
2021/01/06 04:45:07;;;;;;;52.17;28.77;;;;;;;2.03;77.65;98432.64;2160854;82;21272;-77
2021/01/06 04:48:08;;;;;;;48.53;28.37;;;;;;;2.04;77.73;98434.81;2160858;82;21238;-77
2021/01/06 04:51:09;;;;;;;50.07;28.53;;;;;;;2.04;77.74;98431.83;2160192;82;21308;-77
2021/01/06 04:54:10;;;;;;;53.83;30.23;;;;;;;2.05;77.75;98439.14;2160751;81;21768;-77
2021/01/06 04:57:11;;;;;;;48.90;28.60;;;;;;;2.04;77.73;98439.55;2160336;82;21347;-78
2021/01/06 05:00:13;;;;;;;53.30;31.27;;;;;;;2.02;77.76;98439.02;2160612;82;21858;-77
2021/01/06 05:03:14;;;;;;;70.63;38.83;;;;;;;2.04;77.85;98442.12;2160292;82;21265;-77
2021/01/06 05:06:15;;;;;;;56.30;32.27;;;;;;;2.07;77.84;98440.08;2160268;82;21277;-78
2021/01/06 05:09:16;;;;;;;52.53;31.33;;;;;;;2.08;77.83;98431.13;2160368;82;21126;-77
2021/01/06 05:12:17;;;;;;;55.10;31.50;;;;;;;2.10;77.82;98428.20;2160503;82;21301;-77
2021/01/06 05:15:18;;;;;;;56.90;32.07;;;;;;;2.09;77.71;98438.02;2160410;82;21266;-77
2021/01/06 05:18:19;;;;;;;62.40;35.10;;;;;;;2.10;77.77;98432.47;2160434;82;21222;-77
2021/01/06 05:21:20;;;;;;;59.30;34.60;;;;;;;2.13;77.71;98433.88;2160144;82;21240;-76
2021/01/06 05:24:21;;;;;;;55.93;32.53;;;;;;;2.13;77.64;98442.88;2160651;82;21508;-77
2021/01/06 05:27:22;;;;;;;60.27;32.80;;;;;;;2.14;77.62;98438.20;2161032;82;21130;-77
2021/01/06 05:30:23;;;;;;;59.03;33.97;;;;;;;2.12;77.50;98437.27;2160954;82;21245;-76
2021/01/06 05:33:25;;;;;;;56.27;33.37;;;;;;;2.08;77.50;98432.41;2161788;82;21350;-80
2021/01/06 05:36:26;;;;;;;65.43;36.10;;;;;;;2.09;77.65;98434.58;2161807;82;21527;-78
2021/01/06 05:39:28;;;;;;;66.33;36.67;;;;;;;2.17;77.76;98438.32;2161786;82;21249;-77
2021/01/06 05:42:29;;;;;;;81.70;42.60;;;;;;;2.23;77.76;98436.85;2161845;82;21138;-77
2021/01/06 05:45:34;;;;;;;83.57;42.50;;;;;;;2.27;77.62;98443.00;2161584;82;21276;-77
2021/01/06 05:48:35;;;;;;;93.20;45.90;;;;;;;2.29;77.57;98439.19;2161862;82;21535;-77
2021/01/06 05:51:36;;;;;;;91.43;42.83;;;;;;;2.31;77.52;98422.98;2161178;82;21285;-78
2021/01/06 05:54:37;;;;;;;92.33;42.00;;;;;;;2.32;77.21;98431.17;2161305;81;21273;-78
2021/01/06 05:57:38;;;;;;;90.23;42.87;;;;;;;2.35;77.29;98426.55;2161567;82;21238;-77
2021/01/06 06:00:39;;;;;;;79.40;40.57;;;;;;;2.37;77.35;98436.49;2161016;82;21257;-77
2021/01/06 06:03:40;;;;;;;74.87;36.57;;;;;;;2.36;77.36;98430.87;2161128;82;21120;-78
2021/01/06 06:06:41;;;;;;;70.73;35.83;;;;;;;2.39;77.25;98434.44;2161810;82;21245;-79
2021/01/06 06:09:43;;;;;;;65.67;36.00;;;;;;;2.41;77.22;98434.50;2161070;82;21253;-80
2021/01/06 06:12:44;;;;;;;72.13;35.47;;;;;;;2.42;77.14;98436.25;2161063;82;21308;-80
2021/01/06 06:15:45;;;;;;;75.37;36.60;;;;;;;2.43;77.16;98437.59;2160843;82;21277;-79
2021/01/06 06:18:46;;;;;;;68.37;35.30;;;;;;;2.45;77.16;98438.53;2160815;82;21119;-78
2021/01/06 06:21:47;;;;;;;82.67;37.73;;;;;;;2.45;77.04;98438.94;2160869;82;21297;-79
2021/01/06 06:24:48;;;;;;;76.03;38.30;;;;;;;2.43;77.01;98435.02;2161104;82;21547;-79
2021/01/06 06:27:49;;;;;;;64.57;35.33;;;;;;;2.45;77.03;98438.94;2160882;82;21253;-78
2021/01/06 06:30:50;;;;;;;76.67;38.10;;;;;;;2.41;76.98;98441.81;2160469;82;21265;-79
2021/01/06 06:33:51;;;;;;;82.23;38.33;;;;;;;2.42;77.06;98435.84;2161016;82;21284;-80
2021/01/06 06:36:53;;;;;;;68.27;34.87;;;;;;;2.44;77.02;98443.63;2161179;82;21107;-80
2021/01/06 06:39:54;;;;;;;75.00;36.83;;;;;;;2.45;76.91;98442.39;2160667;82;21298;-80
2021/01/06 06:42:55;;;;;;;81.23;38.30;;;;;;;2.46;76.92;98443.27;2160564;82;21131;-79
2021/01/06 06:45:56;;;;;;;97.40;41.53;;;;;;;2.45;76.97;98452.70;2161852;82;21142;-80
2021/01/06 06:48:57;;;;;;;88.83;40.43;;;;;;;2.46;77.00;98458.32;2161347;82;21111;-80
2021/01/06 06:51:58;;;;;;;93.93;40.13;;;;;;;2.47;76.89;98465.64;2161878;82;21285;-80
2021/01/06 06:54:59;;;;;;;117.90;53.57;;;;;;;2.46;76.82;98476.77;2173109;81;21181;-80
2021/01/06 06:58:00;;;;;;;111.70;47.63;;;;;;;2.42;76.86;98472.31;2179029;81;21137;-79
2021/01/06 07:01:01;;;;;;;78.83;37.30;;;;;;;2.42;76.92;98483.91;2178712;82;21158;-80
2021/01/06 07:04:02;;;;;;;66.70;32.97;;;;;;;2.41;76.93;98487.30;2178140;81;21161;-81
2021/01/06 07:07:03;;;;;;;66.63;31.20;;;;;;;2.45;76.97;98484.91;2177844;81;21249;-78
2021/01/06 07:10:04;;;;;;;55.23;31.97;;;;;;;2.47;76.90;98475.53;2177837;81;21322;-80
2021/01/06 07:13:05;;;;;;;55.93;30.13;;;;;;;2.51;76.78;98484.25;2178608;81;21447;-80
2021/01/06 07:16:06;;;;;;;54.30;30.03;;;;;;;2.53;76.89;98484.78;2178728;81;21203;-79
2021/01/06 07:19:07;;;;;;;50.47;29.40;;;;;;;2.60;76.84;98486.30;2178495;81;21133;-79
2021/01/06 07:22:09;;;;;;;52.70;30.30;;;;;;;2.62;76.80;98488.55;2178715;81;21157;-80
2021/01/06 07:25:10;;;;;;;49.17;29.87;;;;;;;2.63;76.75;98491.59;2178842;82;21139;-79
2021/01/06 07:28:15;;;;;;;48.13;28.37;;;;;;;2.65;76.65;98493.41;2178736;81;21265;-78
2021/01/06 07:31:16;;;;;;;49.57;30.80;;;;;;;2.68;76.66;98497.80;2178472;81;21292;-79
2021/01/06 07:34:17;;;;;;;51.10;29.57;;;;;;;2.71;76.45;98491.06;2179115;81;21276;-78
2021/01/06 07:37:18;;;;;;;51.67;29.60;;;;;;;2.72;76.49;98490.65;2178685;81;21114;-78
2021/01/06 07:40:19;;;;;;;56.63;31.53;;;;;;;2.73;76.53;98489.41;2177809;81;21423;-79
2021/01/06 07:43:20;;;;;;;49.57;29.97;;;;;;;2.78;76.36;98485.31;2178548;81;21133;-79
2021/01/06 07:46:22;;;;;;;52.00;31.10;;;;;;;2.83;76.36;98488.93;2178949;82;21280;-78
2021/01/06 07:49:26;;;;;;;60.33;31.03;;;;;;;2.92;76.48;98487.09;2178771;81;21126;-80
2021/01/06 07:52:27;;;;;;;54.75;29.95;;;;;;;2.99;76.21;98495.52;2179019;82;21209;-79
2021/01/06 07:55:28;;;;;;;53.00;31.13;;;;;;;3.03;76.18;98493.52;2178962;81;21169;-80
2021/01/06 07:58:29;;;;;;;52.57;31.40;;;;;;;3.07;76.07;98492.80;2179209;81;21158;-79
2021/01/06 08:01:35;;;;;;;55.27;30.90;;;;;;;3.13;75.95;98498.58;2178791;81;21427;-80
2021/01/06 08:04:37;;;;;;;51.70;31.33;;;;;;;3.16;75.68;98497.41;2178787;81;21138;-80
2021/01/06 08:07:38;;;;;;;53.77;30.10;;;;;;;3.18;75.82;98493.17;2179157;81;21256;-81
2021/01/06 08:10:39;;;;;;;50.70;30.37;;;;;;;3.22;75.58;98490.29;2178637;81;21284;-81
2021/01/06 08:13:40;;;;;;;52.53;30.67;;;;;;;3.22;75.63;98487.71;2179144;81;21169;-79
2021/01/06 08:16:41;;;;;;;54.33;29.50;;;;;;;3.25;75.60;98486.53;2178175;81;21747;-79
2021/01/06 08:19:42;;;;;;;46.90;29.53;;;;;;;3.30;75.49;98489.73;2178603;81;21138;-79
2021/01/06 08:22:43;;;;;;;50.60;29.83;;;;;;;3.35;75.44;98496.34;2178605;81;21162;-79
2021/01/06 08:25:44;;;;;;;51.10;29.30;;;;;;;3.37;75.49;98493.40;2177781;81;21123;-80
2021/01/06 08:28:45;;;;;;;52.57;29.87;;;;;;;3.35;75.06;98491.17;2178439;81;21401;-79
2021/01/06 08:31:47;;;;;;;51.23;31.07;;;;;;;3.34;75.16;98490.72;2178708;81;21165;-79
2021/01/06 08:34:48;;;;;;;50.40;30.30;;;;;;;3.37;75.29;98481.79;2178952;82;21279;-79
2021/01/06 08:37:50;;;;;;;48.30;31.00;;;;;;;3.49;75.30;98475.79;2179107;81;21086;-79
2021/01/06 08:40:51;;;;;;;48.30;28.37;;;;;;;3.54;75.02;98480.69;2179095;81;21161;-80
2021/01/06 08:43:52;;;;;;;48.03;30.03;;;;;;;3.58;74.86;98490.70;2179636;81;21150;-79
2021/01/06 08:46:53;;;;;;;46.23;28.97;;;;;;;3.61;74.99;98482.65;2179463;81;21142;-79
2021/01/06 08:49:54;;;;;;;49.87;29.07;;;;;;;3.62;74.65;98480.53;2179143;81;21158;-80
2021/01/06 08:52:55;;;;;;;49.97;30.70;;;;;;;3.61;74.65;98486.94;2179226;81;21201;-80
2021/01/06 08:55:56;;;;;;;49.60;29.00;;;;;;;3.64;74.99;98494.36;2178906;81;21138;-79
2021/01/06 08:58:58;;;;;;;43.80;27.83;;;;;;;3.69;74.87;98489.36;2178402;82;21271;-79
2021/01/06 09:01:59;;;;;;;50.03;28.50;;;;;;;3.72;74.73;98487.75;2179279;81;21400;-79
2021/01/06 09:05:00;;;;;;;43.17;28.00;;;;;;;3.78;74.76;98486.66;2178760;81;21173;-80
2021/01/06 09:08:01;;;;;;;45.90;28.53;;;;;;;3.77;74.09;98479.74;2179128;82;21535;-79
2021/01/06 09:11:02;;;;;;;45.10;28.30;;;;;;;3.69;74.46;98478.61;2179448;81;21256;-81
2021/01/06 09:14:04;;;;;;;44.63;27.30;;;;;;;3.69;74.48;98469.58;2178804;81;21260;-80
2021/01/06 09:17:05;;;;;;;45.27;28.13;;;;;;;3.73;74.33;98467.98;2179253;82;21403;-79
2021/01/06 09:20:06;;;;;;;44.73;28.23;;;;;;;3.78;74.57;98467.30;2178846;82;21432;-81
2021/01/06 09:23:07;;;;;;;45.23;29.30;;;;;;;3.87;74.49;98476.17;2179008;81;21138;-80
2021/01/06 09:26:08;;;;;;;45.20;27.27;;;;;;;3.92;74.59;98484.94;2178169;81;21425;-80
2021/01/06 09:29:09;;;;;;;41.73;26.67;;;;;;;3.93;74.15;98473.78;2178460;81;21134;-79
2021/01/06 09:32:10;;;;;;;48.80;29.00;;;;;;;3.88;74.31;98474.92;2178574;81;21173;-79
2021/01/06 09:35:11;;;;;;;39.77;26.77;;;;;;;3.91;74.32;98472.44;2178756;81;21142;-80
2021/01/06 09:38:12;;;;;;;45.27;27.83;;;;;;;3.98;74.23;98474.80;2178978;81;21259;-79
2021/01/06 09:41:14;;;;;;;43.37;26.03;;;;;;;3.93;73.91;98466.91;2179571;81;21259;-78
2021/01/06 09:44:15;;;;;;;47.70;29.63;;;;;;;4.00;73.96;98461.52;2179678;81;21269;-79
2021/01/06 09:47:16;;;;;;;43.43;25.47;;;;;;;4.07;74.11;98465.64;2179600;81;21118;-79
2021/01/06 09:50:17;;;;;;;42.20;26.57;;;;;;;4.10;73.55;98470.02;2179148;81;21440;-81
2021/01/06 09:53:18;;;;;;;41.53;26.10;;;;;;;4.07;73.61;98464.77;2178902;81;21165;-80
2021/01/06 09:56:19;;;;;;;49.27;27.57;;;;;;;4.10;73.92;98455.81;2179208;81;21193;-80
2021/01/06 09:59:20;;;;;;;47.00;29.27;;;;;;;4.19;73.78;98456.09;2178885;81;21149;-79
2021/01/06 10:02:21;;;;;;;43.13;27.37;;;;;;;4.31;73.96;98457.76;2178895;81;21146;-79
2021/01/06 10:05:22;;;;;;;41.00;26.73;;;;;;;4.42;73.81;98457.70;2179400;82;21272;-80
2021/01/06 10:08:24;;;;;;;43.00;27.10;;;;;;;4.53;73.54;98451.55;2178276;81;21260;-78
2021/01/06 10:11:25;;;;;;;42.63;27.17;;;;;;;4.56;73.26;98448.18;2179097;81;21419;-80
2021/01/06 10:14:29;;;;;;;49.23;26.93;;;;;;;4.58;73.10;98433.59;2179599;81;21436;-79
2021/01/06 10:17:30;;;;;;;43.83;28.07;;;;;;;4.61;73.09;98435.84;2179519;82;21368;-78
2021/01/06 10:20:31;;;;;;;41.93;25.53;;;;;;;4.73;72.95;98419.39;2179256;81;21851;-80
2021/01/06 10:23:33;;;;;;;38.77;25.53;;;;;;;4.83;71.93;98410.59;2179364;81;21126;-79
2021/01/06 10:26:34;;;;;;;40.00;25.83;;;;;;;4.87;72.58;98415.89;2178992;81;21436;-79
2021/01/06 10:29:35;;;;;;;38.97;25.53;;;;;;;5.04;71.83;98407.29;2179222;81;21260;-79
2021/01/06 10:32:36;;;;;;;38.30;25.53;;;;;;;5.13;72.08;98405.81;2179195;81;21177;-79
2021/01/06 10:35:37;;;;;;;37.93;24.23;;;;;;;5.34;71.90;98417.59;2179371;81;21157;-79
2021/01/06 10:38:44;;;;;;;37.20;24.30;;;;;;;5.47;71.43;98418.36;2179152;82;21142;-79
2021/01/06 10:41:45;;;;;;;31.67;22.27;;;;;;;5.47;71.43;98418.36;2178709;82;21582;-79
2021/01/06 10:44:46;;;;;;;32.37;21.90;;;;;;;5.51;71.08;98415.01;2179353;81;21138;-80
2021/01/06 10:47:47;;;;;;;29.10;19.53;;;;;;;5.48;70.95;98403.28;2178836;81;21400;-79
2021/01/06 10:50:49;;;;;;;35.63;21.63;;;;;;;5.28;70.31;98406.66;2179115;82;21094;-80
2021/01/06 10:53:50;;;;;;;35.07;22.23;;;;;;;5.29;71.23;98408.42;2178765;81;21431;-79
2021/01/06 10:56:51;;;;;;;32.57;20.87;;;;;;;5.29;71.23;98408.42;2178982;81;21170;-79
2021/01/06 10:59:54;;;;;;;30.03;19.70;;;;;;;5.60;71.13;98397.53;2178690;81;21129;-80
2021/01/06 11:02:55;;;;;;;30.77;20.10;;;;;;;5.60;71.13;98397.53;2178477;81;21775;-80
2021/01/06 11:05:57;;;;;;;27.57;19.47;;;;;;;5.76;70.76;98401.81;2178106;82;21260;-79
2021/01/06 11:08:58;;;;;;;32.03;20.07;;;;;;;5.87;70.31;98400.77;2177734;82;21154;-79
2021/01/06 11:11:59;;;;;;;32.83;20.03;;;;;;;5.87;70.18;98395.59;2178806;81;21138;-79
2021/01/06 11:15:00;;;;;;;33.43;19.23;;;;;;;5.71;69.99;98383.13;2178994;81;21102;-79
2021/01/06 11:18:01;;;;;;;30.13;19.27;;;;;;;5.71;69.99;98383.13;2179254;82;21153;-78
2021/01/06 11:21:02;;;;;;;28.23;18.87;;;;;;;5.55;69.45;98378.42;2179357;81;21138;-80
2021/01/06 11:24:03;;;;;;;29.50;18.90;;;;;;;5.37;69.77;98367.20;2179145;81;21444;-80
2021/01/06 11:27:04;;;;;;;30.20;19.70;;;;;;;5.22;69.56;98366.82;2179128;81;21150;-79
2021/01/06 11:30:05;;;;;;;31.03;20.07;;;;;;;5.16;71.02;98344.64;2179198;81;21142;-79
2021/01/06 11:33:07;;;;;;;28.00;18.73;;;;;;;5.16;71.02;98344.64;2179394;81;21161;-83
2021/01/06 11:36:08;;;;;;;29.97;19.67;;;;;;;5.31;70.11;98342.47;2179200;81;21145;-81
2021/01/06 11:39:09;;;;;;;30.80;18.77;;;;;;;5.42;70.26;98326.77;2178925;81;21210;-80
2021/01/06 11:42:10;;;;;;;33.10;20.23;;;;;;;5.47;70.07;98325.17;2178966;81;21126;-80
2021/01/06 11:45:11;;;;;;;34.90;20.13;;;;;;;5.40;70.19;98315.09;2179231;81;21253;-78
2021/01/06 11:48:12;;;;;;;32.33;21.60;;;;;;;5.35;70.57;98309.34;2178556;81;21472;-78
2021/01/06 11:51:13;;;;;;;31.43;20.50;;;;;;;5.29;69.94;98307.91;2178496;81;21177;-80
2021/01/06 11:54:14;;;;;;;35.17;21.97;;;;;;;5.24;69.99;98305.62;2179480;81;21328;-80
2021/01/06 11:57:15;;;;;;;32.07;21.13;;;;;;;5.21;70.36;98297.80;2161539;82;21552;-78
2021/01/06 12:00:16;;;;;;;34.73;21.33;;;;;;;5.22;70.38;98291.36;2160879;82;21262;-78
2021/01/06 12:03:17;;;;;;;32.47;20.93;;;;;;;5.10;70.27;98277.68;2161319;82;21264;-79
2021/01/06 12:06:18;;;;;;;36.13;21.93;;;;;;;5.02;70.44;98283.09;2161359;82;21249;-79
2021/01/06 12:09:20;;;;;;;37.53;23.33;;;;;;;4.94;70.45;98282.02;2160879;82;21277;-78
2021/01/06 12:12:21;;;;;;;35.83;21.60;;;;;;;4.83;71.23;98292.93;2161131;82;21920;-79
2021/01/06 12:15:22;;;;;;;32.23;20.93;;;;;;;4.70;71.32;98278.40;2160670;82;21269;-79
2021/01/06 12:18:23;;;;;;;35.33;21.13;;;;;;;4.58;71.55;98265.16;2161067;82;21272;-78
2021/01/06 12:21:24;;;;;;;30.73;20.20;;;;;;;4.52;71.84;98264.13;2161616;82;21659;-79
2021/01/06 12:24:26;;;;;;;34.53;19.97;;;;;;;4.56;72.22;98264.66;2161706;82;21547;-78
2021/01/06 12:27:27;;;;;;;35.20;21.07;;;;;;;4.60;72.28;98266.48;2161613;82;21130;-78
2021/01/06 12:30:28;;;;;;;39.13;22.50;;;;;;;4.59;72.38;98260.86;2161491;82;21268;-78
2021/01/06 12:33:31;;;;;;;38.07;23.27;;;;;;;4.62;72.63;98264.40;2161697;82;21324;-81
2021/01/06 12:36:32;;;;;;;37.97;22.57;;;;;;;4.72;72.77;98270.68;2161096;82;21523;-79
2021/01/06 12:39:34;;;;;;;37.80;21.67;;;;;;;4.88;72.28;98265.06;2160664;82;21252;-79
2021/01/06 12:42:35;;;;;;;36.77;22.00;;;;;;;4.98;72.14;98269.63;2161565;82;21152;-79
2021/01/06 12:45:36;;;;;;;36.47;22.03;;;;;;;5.08;72.25;98275.47;2161881;82;21266;-79
2021/01/06 12:48:37;;;;;;;33.90;21.30;;;;;;;5.18;71.81;98272.69;2161482;82;21559;-79
2021/01/06 12:51:38;;;;;;;38.63;23.20;;;;;;;5.18;71.86;98265.34;2161694;82;21288;-79
2021/01/06 12:54:39;;;;;;;37.67;23.70;;;;;;;5.08;71.91;98263.83;2162251;81;21143;-79
2021/01/06 12:57:40;;;;;;;37.27;23.23;;;;;;;5.03;72.17;98250.33;2171465;82;21130;-78
2021/01/06 13:00:42;;;;;;;37.77;22.20;;;;;;;4.95;71.99;98257.91;2171840;82;21428;-79
2021/01/06 13:03:43;;;;;;;34.17;21.13;;;;;;;4.83;72.34;98251.56;2170971;82;21102;-79
2021/01/06 13:06:44;;;;;;;38.67;22.30;;;;;;;4.72;72.33;98249.58;2170591;82;21399;-79
2021/01/06 13:09:45;;;;;;;36.43;22.47;;;;;;;4.66;72.65;98245.97;2170964;82;21895;-79
2021/01/06 13:12:46;;;;;;;35.27;22.30;;;;;;;4.62;72.89;98254.48;2171642;82;21177;-80
2021/01/06 13:15:48;;;;;;;30.23;19.20;;;;;;;4.57;73.05;98252.19;2172204;82;21114;-82
2021/01/06 13:18:49;;;;;;;32.47;20.13;;;;;;;7.17;82.64;98237.44;2171795;82;21098;-79
2021/01/06 13:21:50;;;;;;;30.13;19.50;;;;;;;8.28;70.95;98234.63;2172055;82;21130;-79
2021/01/06 13:24:52;;;;;;;28.97;19.20;;;;;;;7.32;67.30;98240.27;2172201;82;21143;-80
2021/01/06 13:27:53;;;;;;;33.83;21.43;;;;;;;6.47;67.99;98241.40;2171893;82;21146;-78
2021/01/06 13:30:55;;;;;;;33.27;20.03;;;;;;;5.93;68.96;98238.16;2171934;82;21138;-80
2021/01/06 13:33:58;;;;;;;32.20;21.57;;;;;;;5.54;69.41;98231.69;2172130;82;21609;-81
2021/01/06 13:36:59;;;;;;;36.80;21.97;;;;;;;5.27;70.36;98230.66;2171511;82;21296;-79
2021/01/06 13:40:00;;;;;;;37.33;21.47;;;;;;;5.16;70.79;98226.92;2171896;82;21261;-80
2021/01/06 13:43:01;;;;;;;36.90;21.33;;;;;;;5.00;70.87;98233.45;2171670;82;21296;-79
2021/01/06 13:46:03;;;;;;;38.13;20.83;;;;;;;4.89;71.10;98228.44;2171427;82;21114;-79
2021/01/06 13:49:04;;;;;;;33.77;20.50;;;;;;;4.79;71.39;98226.05;2172028;82;21150;-80
2021/01/06 13:52:05;;;;;;;34.00;20.47;;;;;;;4.75;71.65;98217.75;2172355;82;21173;-81
2021/01/06 13:55:08;;;;;;;35.10;21.70;;;;;;;4.72;71.77;98222.85;2173121;81;21232;-80
2021/01/06 13:58:09;;;;;;;36.40;22.40;;;;;;;4.61;71.82;98219.13;2179325;82;21162;-79
2021/01/06 14:01:10;;;;;;;36.27;21.37;;;;;;;4.54;72.17;98210.34;2179690;82;21150;-81